Aviation Digital Data Service (ADDS)

Output produced by METARs form (0905 UTC 24 March 2019)
found at http://www.aviationweather.gov/metar/data/
 
METAR text: UUBW 240830Z 18004MPS 1400 1300SE R30/1300N SHSN BKN013CB 00/M00 Q1010 R30/650343 TEMPO 0900 +SHSN
Conditions at: UUBW (MOSCOW/NOVOYE SR, RU) observed 0830 UTC 24 March 2019
Temperature: 0.0°C (32°F)
Dewpoint: 0.0°C (32°F) [RH = 100%]
Pressure (altimeter): 29.82 inches Hg (1010.0 mb)
Winds: from the S (180 degrees) at 9 MPH (8 knots; 4.1 m/s)
Visibility: 0.87 miles (1.40 km)
Ceiling: 1300 feet AGL
Clouds: broken clouds at 1300 feet AGL
Weather: SHSN  (snow showers)

METAR text: UUBW 240800Z 19004MPS 1200 0800NW R30/1200D +SHSN BKN013CB 00/M01 Q1011 R30/210050 TEMPO 0900 +SHSN
Conditions at: UUBW (MOSCOW/NOVOYE SR, RU) observed 0800 UTC 24 March 2019
Temperature: 0.0°C (32°F)
Dewpoint: -1.0°C (30°F) [RH = 93%]
Pressure (altimeter): 29.85 inches Hg (1011.0 mb)
Winds: from the S (190 degrees) at 9 MPH (8 knots; 4.1 m/s)
Visibility: 0.75 miles (1.21 km)
Ceiling: 1300 feet AGL
Clouds: broken clouds at 1300 feet AGL
Weather: +SHSN  (heavy snow showers)

METAR text: UUBW 240730Z 18003MPS 4700 -SHSN BKN013CB 00/M01 Q1011 R30/210050 TEMPO 1200 SHSN
Conditions at: UUBW (MOSCOW/NOVOYE SR, RU) observed 0730 UTC 24 March 2019
Temperature: 0.0°C (32°F)
Dewpoint: -1.0°C (30°F) [RH = 93%]
Pressure (altimeter): 29.85 inches Hg (1011.0 mb)
Winds: from the S (180 degrees) at 7 MPH (6 knots; 3.1 m/s)
Visibility: 2.92 miles (4.70 km)
Ceiling: 1300 feet AGL
Clouds: broken clouds at 1300 feet AGL
Weather: -SHSN  (light snow showers)

METAR text: UUBW 240700Z 18004MPS 8000 -SN SCT032 01/M02 Q1011 R30/110050 TEMPO 2000 SHSN BKN012CB
Conditions at: UUBW (MOSCOW/NOVOYE SR, RU) observed 0700 UTC 24 March 2019
Temperature: 1.0°C (34°F)
Dewpoint: -2.0°C (28°F) [RH = 80%]
Pressure (altimeter): 29.85 inches Hg (1011.0 mb)
Winds: from the S (180 degrees) at 9 MPH (8 knots; 4.1 m/s)
Visibility: 5 miles ( 8 km)
Ceiling: at least 12,000 feet AGL
Clouds: scattered clouds at 3200 feet AGL
Weather: -SN  (light snow)

METAR text: UUBW 240630Z 18003MPS CAVOK 02/M03 Q1012 R30/010060 TEMPO 2000 SHSN BKN012CB
Conditions at: UUBW (MOSCOW/NOVOYE SR, RU) observed 0630 UTC 24 March 2019
Temperature: 2.0°C (36°F)
Dewpoint: -3.0°C (27°F) [RH = 69%]
Pressure (altimeter): 29.88 inches Hg (1012.0 mb)
Winds: from the S (180 degrees) at 7 MPH (6 knots; 3.1 m/s)
Visibility: 6 or more miles (10+ km)
Ceiling: ceiling and visibility are OK
Clouds: unknown
Weather: no significant weather observed at this time

METAR text: UUBW 240600Z 18003MPS CAVOK 01/M03 Q1012 R30/010060 TEMPO 2000 SHSN BKN012CB
Conditions at: UUBW (MOSCOW/NOVOYE SR, RU) observed 0600 UTC 24 March 2019
Temperature: 1.0°C (34°F)
Dewpoint: -3.0°C (27°F) [RH = 75%]
Pressure (altimeter): 29.88 inches Hg (1012.0 mb)
Winds: from the S (180 degrees) at 7 MPH (6 knots; 3.1 m/s)
Visibility: 6 or more miles (10+ km)
Ceiling: ceiling and visibility are OK
Clouds: unknown
Weather: no significant weather observed at this time

METAR text: UUBW 240530Z 17002MPS CAVOK 00/M03 Q1012 R30/010060 NOSIG
Conditions at: UUBW (MOSCOW/NOVOYE SR, RU) observed 0530 UTC 24 March 2019
Temperature: 0.0°C (32°F)
Dewpoint: -3.0°C (27°F) [RH = 80%]
Pressure (altimeter): 29.88 inches Hg (1012.0 mb)
Winds: from the S (170 degrees) at 5 MPH (4 knots; 2.1 m/s)
Visibility: 6 or more miles (10+ km)
Ceiling: ceiling and visibility are OK
Clouds: unknown
Weather: no significant weather observed at this time

METAR text: UUBW 240500Z 18003MPS CAVOK M00/M03 Q1012 R30/010060 NOSIG
Conditions at: UUBW (MOSCOW/NOVOYE SR, RU) observed 0500 UTC 24 March 2019
Temperature: 0.0°C (32°F)
Dewpoint: -3.0°C (27°F) [RH = 80%]
Pressure (altimeter): 29.88 inches Hg (1012.0 mb)
Winds: from the S (180 degrees) at 7 MPH (6 knots; 3.1 m/s)
Visibility: 6 or more miles (10+ km)
Ceiling: ceiling and visibility are OK
Clouds: unknown
Weather: no significant weather observed at this time

METAR text: UUBW 240430Z 19002MPS CAVOK M00/M03 Q1013 R30/010060 NOSIG
Conditions at: UUBW (MOSCOW/NOVOYE SR, RU) observed 0430 UTC 24 March 2019
Temperature: 0.0°C (32°F)
Dewpoint: -3.0°C (27°F) [RH = 80%]
Pressure (altimeter): 29.91 inches Hg (1013.0 mb)
Winds: from the S (190 degrees) at 5 MPH (4 knots; 2.1 m/s)
Visibility: 6 or more miles (10+ km)
Ceiling: ceiling and visibility are OK
Clouds: unknown
Weather: no significant weather observed at this time

METAR text: UUBW 240400Z VRB01MPS CAVOK M01/M04 Q1013 R30/010060 NOSIG
Conditions at: UUBW (MOSCOW/NOVOYE SR, RU) observed 0400 UTC 24 March 2019
Temperature: -1.0°C (30°F)
Dewpoint: -4.0°C (25°F) [RH = 80%]
Pressure (altimeter): 29.91 inches Hg (1013.0 mb)
Winds: variable direction winds at 2 MPH (2 knots; 1.0 m/s)
Visibility: 6 or more miles (10+ km)
Ceiling: ceiling and visibility are OK
Clouds: unknown
Weather: no significant weather observed at this time

METAR text: UUBW 240330Z 09002MPS 9000 NSC M01/M04 Q1013 R30/010060 NOSIG
Conditions at: UUBW (MOSCOW/NOVOYE SR, RU) observed 0330 UTC 24 March 2019
Temperature: -1.0°C (30°F)
Dewpoint: -4.0°C (25°F) [RH = 80%]
Pressure (altimeter): 29.91 inches Hg (1013.0 mb)
Winds: from the E (90 degrees) at 5 MPH (4 knots; 2.1 m/s)
Visibility: 6 miles ( 9 km)
Ceiling: at least 12,000 feet AGL
Clouds: sky clear below 12,000 feet AGL
Weather: no significant weather observed at this time

METAR text: UUBW 240300Z 08002MPS 7000 NSC M03/M04 Q1014 R30/010060 NOSIG
Conditions at: UUBW (MOSCOW/NOVOYE SR, RU) observed 0300 UTC 24 March 2019
Temperature: -3.0°C (27°F)
Dewpoint: -4.0°C (25°F) [RH = 93%]
Pressure (altimeter): 29.94 inches Hg (1014.0 mb)
Winds: from the E (80 degrees) at 5 MPH (4 knots; 2.1 m/s)
Visibility: 4 miles ( 7 km)
Ceiling: at least 12,000 feet AGL
Clouds: sky clear below 12,000 feet AGL
Weather: no significant weather observed at this time

METAR text: UUBW 240230Z 10002MPS 5000 BR NSC M05/M05 Q1014 R30/010060 NOSIG
Conditions at: UUBW (MOSCOW/NOVOYE SR, RU) observed 0230 UTC 24 March 2019
Temperature: -5.0°C (23°F)
Dewpoint: -5.0°C (23°F) [RH = 100%]
Pressure (altimeter): 29.94 inches Hg (1014.0 mb)
Winds: from the E (100 degrees) at 5 MPH (4 knots; 2.1 m/s)
Visibility: 3 miles ( 5 km)
Ceiling: at least 12,000 feet AGL
Clouds: sky clear below 12,000 feet AGL
Weather: BR  (mist)

METAR text: UUBW 240200Z 08002MPS 5000 BR NSC M05/M06 Q1015 R30/010060 NOSIG
Conditions at: UUBW (MOSCOW/NOVOYE SR, RU) observed 0200 UTC 24 March 2019
Temperature: -5.0°C (23°F)
Dewpoint: -6.0°C (21°F) [RH = 93%]
Pressure (altimeter): 29.97 inches Hg (1015.0 mb)
Winds: from the E (80 degrees) at 5 MPH (4 knots; 2.1 m/s)
Visibility: 3 miles ( 5 km)
Ceiling: at least 12,000 feet AGL
Clouds: sky clear below 12,000 feet AGL
Weather: BR  (mist)

METAR text: UUBW 240130Z 10001MPS 4000 R30/2000U BR NSC M05/M06 Q1016 R30/010060 TEMPO 0200 FZFG
Conditions at: UUBW (MOSCOW/NOVOYE SR, RU) observed 0130 UTC 24 March 2019
Temperature: -5.0°C (23°F)
Dewpoint: -6.0°C (21°F) [RH = 93%]
Pressure (altimeter): 30.00 inches Hg (1016.0 mb)
Winds: from the E (100 degrees) at 2 MPH (2 knots; 1.0 m/s)
Visibility: 2.49 miles (4.01 km)
Ceiling: at least 12,000 feet AGL
Clouds: sky clear below 12,000 feet AGL
Weather: BR  (mist)

METAR text: UUBW 240100Z 10002MPS 2700 0550SE R30/0550U FZFG NSC M04/M05 Q1016 R30/010060 TEMPO 0200 FZFG
Conditions at: UUBW (MOSCOW/NOVOYE SR, RU) observed 0100 UTC 24 March 2019
Temperature: -4.0°C (25°F)
Dewpoint: -5.0°C (23°F) [RH = 93%]
Pressure (altimeter): 30.00 inches Hg (1016.0 mb)
Winds: from the E (100 degrees) at 5 MPH (4 knots; 2.1 m/s)
Visibility: 1.68 miles (2.70 km)
Ceiling: at least 12,000 feet AGL
Clouds: sky clear below 12,000 feet AGL
Weather: FZFG  (freezing fog)

METAR text: UUBW 240030Z 12001MPS 3300 BR NSC M04/M05 Q1017 R30/010060 TEMPO 0200 FZFG
Conditions at: UUBW (MOSCOW/NOVOYE SR, RU) observed 0030 UTC 24 March 2019
Temperature: -4.0°C (25°F)
Dewpoint: -5.0°C (23°F) [RH = 93%]
Pressure (altimeter): 30.03 inches Hg (1017.0 mb)
Winds: from the ESE (120 degrees) at 2 MPH (2 knots; 1.0 m/s)
Visibility: 2.05 miles (3.30 km)
Ceiling: at least 12,000 feet AGL
Clouds: sky clear below 12,000 feet AGL
Weather: BR  (mist)

METAR text: UUBW 240000Z 08001MPS 3200 0900SE R30/0900D FZFG NSC M04/M05 Q1017 R30/010060 TEMPO 0200 FZFG
Conditions at: UUBW (MOSCOW/NOVOYE SR, RU) observed 0000 UTC 24 March 2019
Temperature: -4.0°C (25°F)
Dewpoint: -5.0°C (23°F) [RH = 93%]
Pressure (altimeter): 30.03 inches Hg (1017.0 mb)
Winds: from the E (80 degrees) at 2 MPH (2 knots; 1.0 m/s)
Visibility: 1.99 miles (3.20 km)
Ceiling: at least 12,000 feet AGL
Clouds: sky clear below 12,000 feet AGL
Weather: FZFG  (freezing fog)

METAR text: UUBW 232330Z 08001MPS 2400 1300SE R30/1300U BR SCT003 M04/M04 Q1017 R30/010060 TEMPO 0200 FZFG
Conditions at: UUBW (MOSCOW/NOVOYE SR, RU) observed 2330 UTC 23 March 2019
Temperature: -4.0°C (25°F)
Dewpoint: -4.0°C (25°F) [RH = 100%]
Pressure (altimeter): 30.03 inches Hg (1017.0 mb)
Winds: from the E (80 degrees) at 2 MPH (2 knots; 1.0 m/s)
Visibility: 1.49 miles (2.40 km)
Ceiling: at least 12,000 feet AGL
Clouds: scattered clouds at 300 feet AGL
Weather: BR  (mist)

METAR text: UUBW 232300Z 11001MPS 2100 1300NW BR FEW002 M04/M05 Q1017 R30/010060 TEMPO 0400 FZFG RMK QBB070
Conditions at: UUBW (MOSCOW/NOVOYE SR, RU) observed 2300 UTC 23 March 2019
Temperature: -4.0°C (25°F)
Dewpoint: -5.0°C (23°F) [RH = 93%]
Pressure (altimeter): 30.03 inches Hg (1017.0 mb)
Winds: from the ESE (110 degrees) at 2 MPH (2 knots; 1.0 m/s)
Visibility: 1.30 miles (2.09 km)
Ceiling: at least 12,000 feet AGL
Clouds: few clouds at 200 feet AGL
Weather: BR  (mist)

METAR text: UUBW 232230Z 00000MPS 6000 NSC M04/M04 Q1018 R30/010060 NOSIG
Conditions at: UUBW (MOSCOW/NOVOYE SR, RU) observed 2230 UTC 23 March 2019
Temperature: -4.0°C (25°F)
Dewpoint: -4.0°C (25°F) [RH = 100%]
Pressure (altimeter): 30.06 inches Hg (1018.0 mb)
Winds: calm
Visibility: 4 miles ( 6 km)
Ceiling: at least 12,000 feet AGL
Clouds: sky clear below 12,000 feet AGL
Weather: no significant weather observed at this time

METAR text: UUBW 232200Z 00000MPS 6000 NSC M03/M04 Q1018 R30/010060 NOSIG
Conditions at: UUBW (MOSCOW/NOVOYE SR, RU) observed 2200 UTC 23 March 2019
Temperature: -3.0°C (27°F)
Dewpoint: -4.0°C (25°F) [RH = 93%]
Pressure (altimeter): 30.06 inches Hg (1018.0 mb)
Winds: calm
Visibility: 4 miles ( 6 km)
Ceiling: at least 12,000 feet AGL
Clouds: sky clear below 12,000 feet AGL
Weather: no significant weather observed at this time

METAR text: UUBW 232130Z 00000MPS 6000 NSC M03/M04 Q1019 R30/010060 NOSIG
Conditions at: UUBW (MOSCOW/NOVOYE SR, RU) observed 2130 UTC 23 March 2019
Temperature: -3.0°C (27°F)
Dewpoint: -4.0°C (25°F) [RH = 93%]
Pressure (altimeter): 30.09 inches Hg (1019.0 mb)
Winds: calm
Visibility: 4 miles ( 6 km)
Ceiling: at least 12,000 feet AGL
Clouds: sky clear below 12,000 feet AGL
Weather: no significant weather observed at this time

METAR text: UUBW 232100Z 29001MPS 9000 NSC M02/M03 Q1019 R30/010060 NOSIG
Conditions at: UUBW (MOSCOW/NOVOYE SR, RU) observed 2100 UTC 23 March 2019
Temperature: -2.0°C (28°F)
Dewpoint: -3.0°C (27°F) [RH = 93%]
Pressure (altimeter): 30.09 inches Hg (1019.0 mb)
Winds: from the WNW (290 degrees) at 2 MPH (2 knots; 1.0 m/s)
Visibility: 6 miles ( 9 km)
Ceiling: at least 12,000 feet AGL
Clouds: sky clear below 12,000 feet AGL
Weather: no significant weather observed at this time

METAR text: UUBW 232030Z 28001MPS CAVOK M02/M04 Q1019 R30/010060 NOSIG
Conditions at: UUBW (MOSCOW/NOVOYE SR, RU) observed 2030 UTC 23 March 2019
Temperature: -2.0°C (28°F)
Dewpoint: -4.0°C (25°F) [RH = 86%]
Pressure (altimeter): 30.09 inches Hg (1019.0 mb)
Winds: from the W (280 degrees) at 2 MPH (2 knots; 1.0 m/s)
Visibility: 6 or more miles (10+ km)
Ceiling: ceiling and visibility are OK
Clouds: unknown
Weather: no significant weather observed at this time

METAR text: UUBW 232000Z 28002MPS CAVOK M01/M03 Q1019 R30/010060 NOSIG
Conditions at: UUBW (MOSCOW/NOVOYE SR, RU) observed 2000 UTC 23 March 2019
Temperature: -1.0°C (30°F)
Dewpoint: -3.0°C (27°F) [RH = 86%]
Pressure (altimeter): 30.09 inches Hg (1019.0 mb)
Winds: from the W (280 degrees) at 5 MPH (4 knots; 2.1 m/s)
Visibility: 6 or more miles (10+ km)
Ceiling: ceiling and visibility are OK
Clouds: unknown
Weather: no significant weather observed at this time

METAR text: UUBW 231930Z VRB01MPS CAVOK M01/M03 Q1020 R30/010060 NOSIG
Conditions at: UUBW (MOSCOW/NOVOYE SR, RU) observed 1930 UTC 23 March 2019
Temperature: -1.0°C (30°F)
Dewpoint: -3.0°C (27°F) [RH = 86%]
Pressure (altimeter): 30.12 inches Hg (1020.0 mb)
Winds: variable direction winds at 2 MPH (2 knots; 1.0 m/s)
Visibility: 6 or more miles (10+ km)
Ceiling: ceiling and visibility are OK
Clouds: unknown
Weather: no significant weather observed at this time

METAR text: UUBW 231900Z 00000MPS CAVOK M00/M03 Q1020 R30/010060 NOSIG
Conditions at: UUBW (MOSCOW/NOVOYE SR, RU) observed 1900 UTC 23 March 2019
Temperature: 0.0°C (32°F)
Dewpoint: -3.0°C (27°F) [RH = 80%]
Pressure (altimeter): 30.12 inches Hg (1020.0 mb)
Winds: calm
Visibility: 6 or more miles (10+ km)
Ceiling: ceiling and visibility are OK
Clouds: unknown
Weather: no significant weather observed at this time

METAR text: UUBW 231830Z 00000MPS CAVOK M00/M03 Q1020 R30/010060 NOSIG
Conditions at: UUBW (MOSCOW/NOVOYE SR, RU) observed 1830 UTC 23 March 2019
Temperature: 0.0°C (32°F)
Dewpoint: -3.0°C (27°F) [RH = 80%]
Pressure (altimeter): 30.12 inches Hg (1020.0 mb)
Winds: calm
Visibility: 6 or more miles (10+ km)
Ceiling: ceiling and visibility are OK
Clouds: unknown
Weather: no significant weather observed at this time

METAR text: UUBW 231800Z 00000MPS CAVOK 01/M03 Q1020 R30/010060 NOSIG
Conditions at: UUBW (MOSCOW/NOVOYE SR, RU) observed 1800 UTC 23 March 2019
Temperature: 1.0°C (34°F)
Dewpoint: -3.0°C (27°F) [RH = 75%]
Pressure (altimeter): 30.12 inches Hg (1020.0 mb)
Winds: calm
Visibility: 6 or more miles (10+ km)
Ceiling: ceiling and visibility are OK
Clouds: unknown
Weather: no significant weather observed at this time

METAR text: UUBW 231730Z 33002MPS CAVOK 02/M02 Q1021 R30/010060 NOSIG
Conditions at: UUBW (MOSCOW/NOVOYE SR, RU) observed 1730 UTC 23 March 2019
Temperature: 2.0°C (36°F)
Dewpoint: -2.0°C (28°F) [RH = 75%]
Pressure (altimeter): 30.15 inches Hg (1021.0 mb)
Winds: from the NNW (330 degrees) at 5 MPH (4 knots; 2.1 m/s)
Visibility: 6 or more miles (10+ km)
Ceiling: ceiling and visibility are OK
Clouds: unknown
Weather: no significant weather observed at this time

METAR text: UUBW 231700Z 33002MPS 9999 SCT043 03/M02 Q1021 R30/010060 NOSIG
Conditions at: UUBW (MOSCOW/NOVOYE SR, RU) observed 1700 UTC 23 March 2019
Temperature: 3.0°C (37°F)
Dewpoint: -2.0°C (28°F) [RH = 70%]
Pressure (altimeter): 30.15 inches Hg (1021.0 mb)
Winds: from the NNW (330 degrees) at 5 MPH (4 knots; 2.1 m/s)
Visibility: 6 or more miles (10+ km)
Ceiling: at least 12,000 feet AGL
Clouds: scattered clouds at 4300 feet AGL
Weather: no significant weather observed at this time

METAR text: UUBW 231630Z 33002MPS 9999 SCT042 03/M02 Q1021 R30/010060 NOSIG
Conditions at: UUBW (MOSCOW/NOVOYE SR, RU) observed 1630 UTC 23 March 2019
Temperature: 3.0°C (37°F)
Dewpoint: -2.0°C (28°F) [RH = 70%]
Pressure (altimeter): 30.15 inches Hg (1021.0 mb)
Winds: from the NNW (330 degrees) at 5 MPH (4 knots; 2.1 m/s)
Visibility: 6 or more miles (10+ km)
Ceiling: at least 12,000 feet AGL
Clouds: scattered clouds at 4200 feet AGL
Weather: no significant weather observed at this time

METAR text: UUBW 231600Z 34002MPS 9999 SCT047 04/M02 Q1021 R30/010060 NOSIG
Conditions at: UUBW (MOSCOW/NOVOYE SR, RU) observed 1600 UTC 23 March 2019
Temperature: 4.0°C (39°F)
Dewpoint: -2.0°C (28°F) [RH = 65%]
Pressure (altimeter): 30.15 inches Hg (1021.0 mb)
Winds: from the NNW (340 degrees) at 5 MPH (4 knots; 2.1 m/s)
Visibility: 6 or more miles (10+ km)
Ceiling: at least 12,000 feet AGL
Clouds: scattered clouds at 4700 feet AGL
Weather: no significant weather observed at this time

METAR text: UUBW 231530Z 36002MPS 9999 FEW047 04/M03 Q1021 R30/010060 NOSIG
Conditions at: UUBW (MOSCOW/NOVOYE SR, RU) observed 1530 UTC 23 March 2019
Temperature: 4.0°C (39°F)
Dewpoint: -3.0°C (27°F) [RH = 60%]
Pressure (altimeter): 30.15 inches Hg (1021.0 mb)
Winds: from the N (360 degrees) at 5 MPH (4 knots; 2.1 m/s)
Visibility: 6 or more miles (10+ km)
Ceiling: at least 12,000 feet AGL
Clouds: few clouds at 4700 feet AGL
Weather: no significant weather observed at this time

METAR text: UUBW 231500Z 35003MPS 9999 SCT047 04/M04 Q1021 R30/010060 NOSIG
Conditions at: UUBW (MOSCOW/NOVOYE SR, RU) observed 1500 UTC 23 March 2019
Temperature: 4.0°C (39°F)
Dewpoint: -4.0°C (25°F) [RH = 56%]
Pressure (altimeter): 30.15 inches Hg (1021.0 mb)
Winds: from the N (350 degrees) at 7 MPH (6 knots; 3.1 m/s)
Visibility: 6 or more miles (10+ km)
Ceiling: at least 12,000 feet AGL
Clouds: scattered clouds at 4700 feet AGL
Weather: no significant weather observed at this time

METAR text: UUBW 231430Z 02004MPS 9999 SCT047 04/M04 Q1021 R30/010060 NOSIG
Conditions at: UUBW (MOSCOW/NOVOYE SR, RU) observed 1430 UTC 23 March 2019
Temperature: 4.0°C (39°F)
Dewpoint: -4.0°C (25°F) [RH = 56%]
Pressure (altimeter): 30.15 inches Hg (1021.0 mb)
Winds: from the NNE (20 degrees) at 9 MPH (8 knots; 4.1 m/s)
Visibility: 6 or more miles (10+ km)
Ceiling: at least 12,000 feet AGL
Clouds: scattered clouds at 4700 feet AGL
Weather: no significant weather observed at this time

METAR text: UUBW 231400Z 36005MPS 9999 SCT046 04/M04 Q1021 R30/010060 NOSIG
Conditions at: UUBW (MOSCOW/NOVOYE SR, RU) observed 1400 UTC 23 March 2019
Temperature: 4.0°C (39°F)
Dewpoint: -4.0°C (25°F) [RH = 56%]
Pressure (altimeter): 30.15 inches Hg (1021.0 mb)
Winds: from the N (360 degrees) at 12 MPH (10 knots; 5.1 m/s)
Visibility: 6 or more miles (10+ km)
Ceiling: at least 12,000 feet AGL
Clouds: scattered clouds at 4600 feet AGL
Weather: no significant weather observed at this time

METAR text: UUBW 231330Z 01004MPS 9999 SCT048 05/M04 Q1020 R30/010060 NOSIG
Conditions at: UUBW (MOSCOW/NOVOYE SR, RU) observed 1330 UTC 23 March 2019
Temperature: 5.0°C (41°F)
Dewpoint: -4.0°C (25°F) [RH = 52%]
Pressure (altimeter): 30.12 inches Hg (1020.0 mb)
Winds: from the N (10 degrees) at 9 MPH (8 knots; 4.1 m/s)
Visibility: 6 or more miles (10+ km)
Ceiling: at least 12,000 feet AGL
Clouds: scattered clouds at 4800 feet AGL
Weather: no significant weather observed at this time

METAR text: UUBW 231300Z 02004MPS 9999 SCT043 04/M03 Q1021 R30/010060 NOSIG
Conditions at: UUBW (MOSCOW/NOVOYE SR, RU) observed 1300 UTC 23 March 2019
Temperature: 4.0°C (39°F)
Dewpoint: -3.0°C (27°F) [RH = 60%]
Pressure (altimeter): 30.15 inches Hg (1021.0 mb)
Winds: from the NNE (20 degrees) at 9 MPH (8 knots; 4.1 m/s)
Visibility: 6 or more miles (10+ km)
Ceiling: at least 12,000 feet AGL
Clouds: scattered clouds at 4300 feet AGL
Weather: no significant weather observed at this time

METAR text: UUBW 231230Z 36005MPS 9999 SCT046 04/M03 Q1021 R30/010060 NOSIG
Conditions at: UUBW (MOSCOW/NOVOYE SR, RU) observed 1230 UTC 23 March 2019
Temperature: 4.0°C (39°F)
Dewpoint: -3.0°C (27°F) [RH = 60%]
Pressure (altimeter): 30.15 inches Hg (1021.0 mb)
Winds: from the N (360 degrees) at 12 MPH (10 knots; 5.1 m/s)
Visibility: 6 or more miles (10+ km)
Ceiling: at least 12,000 feet AGL
Clouds: scattered clouds at 4600 feet AGL
Weather: no significant weather observed at this time

METAR text: UUBW 231200Z 02004MPS 9999 SCT046 04/M03 Q1021 R30/010060 NOSIG
Conditions at: UUBW (MOSCOW/NOVOYE SR, RU) observed 1200 UTC 23 March 2019
Temperature: 4.0°C (39°F)
Dewpoint: -3.0°C (27°F) [RH = 60%]
Pressure (altimeter): 30.15 inches Hg (1021.0 mb)
Winds: from the NNE (20 degrees) at 9 MPH (8 knots; 4.1 m/s)
Visibility: 6 or more miles (10+ km)
Ceiling: at least 12,000 feet AGL
Clouds: scattered clouds at 4600 feet AGL
Weather: no significant weather observed at this time

METAR text: UUBW 231130Z 03004MPS 9999 SCT043 04/M03 Q1021 R30/010060 NOSIG
Conditions at: UUBW (MOSCOW/NOVOYE SR, RU) observed 1130 UTC 23 March 2019
Temperature: 4.0°C (39°F)
Dewpoint: -3.0°C (27°F) [RH = 60%]
Pressure (altimeter): 30.15 inches Hg (1021.0 mb)
Winds: from the NNE (30 degrees) at 9 MPH (8 knots; 4.1 m/s)
Visibility: 6 or more miles (10+ km)
Ceiling: at least 12,000 feet AGL
Clouds: scattered clouds at 4300 feet AGL
Weather: no significant weather observed at this time

METAR text: UUBW 231100Z 03004MPS 9999 SCT033 04/M03 Q1021 R30/010060 NOSIG
Conditions at: UUBW (MOSCOW/NOVOYE SR, RU) observed 1100 UTC 23 March 2019
Temperature: 4.0°C (39°F)
Dewpoint: -3.0°C (27°F) [RH = 60%]
Pressure (altimeter): 30.15 inches Hg (1021.0 mb)
Winds: from the NNE (30 degrees) at 9 MPH (8 knots; 4.1 m/s)
Visibility: 6 or more miles (10+ km)
Ceiling: at least 12,000 feet AGL
Clouds: scattered clouds at 3300 feet AGL
Weather: no significant weather observed at this time

METAR text: UUBW 231030Z 03003MPS 9999 SCT033 04/M02 Q1021 R30/220250 NOSIG
Conditions at: UUBW (MOSCOW/NOVOYE SR, RU) observed 1030 UTC 23 March 2019
Temperature: 4.0°C (39°F)
Dewpoint: -2.0°C (28°F) [RH = 65%]
Pressure (altimeter): 30.15 inches Hg (1021.0 mb)
Winds: from the NNE (30 degrees) at 7 MPH (6 knots; 3.1 m/s)
Visibility: 6 or more miles (10+ km)
Ceiling: at least 12,000 feet AGL
Clouds: scattered clouds at 3300 feet AGL
Weather: no significant weather observed at this time

METAR text: UUBW 231000Z 03005MPS 9999 SCT023 04/M01 Q1020 R30/220250 NOSIG
Conditions at: UUBW (MOSCOW/NOVOYE SR, RU) observed 1000 UTC 23 March 2019
Temperature: 4.0°C (39°F)
Dewpoint: -1.0°C (30°F) [RH = 70%]
Pressure (altimeter): 30.12 inches Hg (1020.0 mb)
Winds: from the NNE (30 degrees) at 12 MPH (10 knots; 5.1 m/s)
Visibility: 6 or more miles (10+ km)
Ceiling: at least 12,000 feet AGL
Clouds: scattered clouds at 2300 feet AGL
Weather: no significant weather observed at this time

METAR text: UUBW 230930Z 36004MPS 9999 SCT023 04/M01 Q1021 R30/220250 NOSIG
Conditions at: UUBW (MOSCOW/NOVOYE SR, RU) observed 0930 UTC 23 March 2019
Temperature: 4.0°C (39°F)
Dewpoint: -1.0°C (30°F) [RH = 70%]
Pressure (altimeter): 30.15 inches Hg (1021.0 mb)
Winds: from the N (360 degrees) at 9 MPH (8 knots; 4.1 m/s)
Visibility: 6 or more miles (10+ km)
Ceiling: at least 12,000 feet AGL
Clouds: scattered clouds at 2300 feet AGL
Weather: no significant weather observed at this time

METAR text: UUBW 230900Z 01004MPS 9999 SCT020 04/M01 Q1021 R30/220250 NOSIG
Conditions at: UUBW (MOSCOW/NOVOYE SR, RU) observed 0900 UTC 23 March 2019
Temperature: 4.0°C (39°F)
Dewpoint: -1.0°C (30°F) [RH = 70%]
Pressure (altimeter): 30.15 inches Hg (1021.0 mb)
Winds: from the N (10 degrees) at 9 MPH (8 knots; 4.1 m/s)
Visibility: 6 or more miles (10+ km)
Ceiling: at least 12,000 feet AGL
Clouds: scattered clouds at 2000 feet AGL
Weather: no significant weather observed at this time

METAR text: UUBW 230830Z 34005MPS 9999 SCT020 03/M01 Q1021 R30/220250 NOSIG
Conditions at: UUBW (MOSCOW/NOVOYE SR, RU) observed 0830 UTC 23 March 2019
Temperature: 3.0°C (37°F)
Dewpoint: -1.0°C (30°F) [RH = 75%]
Pressure (altimeter): 30.15 inches Hg (1021.0 mb)
Winds: from the NNW (340 degrees) at 12 MPH (10 knots; 5.1 m/s)
Visibility: 6 or more miles (10+ km)
Ceiling: at least 12,000 feet AGL
Clouds: scattered clouds at 2000 feet AGL
Weather: no significant weather observed at this time

METAR text: UUBW 230800Z 02004MPS 340V050 9999 SCT019 03/M00 Q1020 R30/220248 NOSIG
Conditions at: UUBW (MOSCOW/NOVOYE SR, RU) observed 0800 UTC 23 March 2019
Temperature: 3.0°C (37°F)
Dewpoint: 0.0°C (32°F) [RH = 81%]
Pressure (altimeter): 30.12 inches Hg (1020.0 mb)
Winds: from the NNE (20 degrees) at 9 MPH (8 knots; 4.1 m/s)
Visibility: 6 or more miles (10+ km)
Ceiling: at least 12,000 feet AGL
Clouds: scattered clouds at 1900 feet AGL
Weather: no significant weather observed at this time

METAR text: UUBW 230730Z 02004MPS 9999 BKN017 02/M00 Q1020 R30/220248 NOSIG
Conditions at: UUBW (MOSCOW/NOVOYE SR, RU) observed 0730 UTC 23 March 2019
Temperature: 2.0°C (36°F)
Dewpoint: 0.0°C (32°F) [RH = 87%]
Pressure (altimeter): 30.12 inches Hg (1020.0 mb)
Winds: from the NNE (20 degrees) at 9 MPH (8 knots; 4.1 m/s)
Visibility: 6 or more miles (10+ km)
Ceiling: 1700 feet AGL
Clouds: broken clouds at 1700 feet AGL
Weather: no significant weather observed at this time

METAR text: UUBW 230700Z 02004MPS 9999 BKN013 02/M01 Q1020 R30/220248 NOSIG
Conditions at: UUBW (MOSCOW/NOVOYE SR, RU) observed 0700 UTC 23 March 2019
Temperature: 2.0°C (36°F)
Dewpoint: -1.0°C (30°F) [RH = 80%]
Pressure (altimeter): 30.12 inches Hg (1020.0 mb)
Winds: from the NNE (20 degrees) at 9 MPH (8 knots; 4.1 m/s)
Visibility: 6 or more miles (10+ km)
Ceiling: 1300 feet AGL
Clouds: broken clouds at 1300 feet AGL
Weather: no significant weather observed at this time

METAR text: UUBW 230630Z 02005MPS 9999 BKN011 02/M00 Q1020 R30/220248 NOSIG
Conditions at: UUBW (MOSCOW/NOVOYE SR, RU) observed 0630 UTC 23 March 2019
Temperature: 2.0°C (36°F)
Dewpoint: 0.0°C (32°F) [RH = 87%]
Pressure (altimeter): 30.12 inches Hg (1020.0 mb)
Winds: from the NNE (20 degrees) at 12 MPH (10 knots; 5.1 m/s)
Visibility: 6 or more miles (10+ km)
Ceiling: 1100 feet AGL
Clouds: broken clouds at 1100 feet AGL
Weather: no significant weather observed at this time

METAR text: UUBW 230600Z 02005MPS 9999 OVC011 02/M01 Q1020 R30/220248 NOSIG
Conditions at: UUBW (MOSCOW/NOVOYE SR, RU) observed 0600 UTC 23 March 2019
Temperature: 2.0°C (36°F)
Dewpoint: -1.0°C (30°F) [RH = 80%]
Pressure (altimeter): 30.12 inches Hg (1020.0 mb)
Winds: from the NNE (20 degrees) at 12 MPH (10 knots; 5.1 m/s)
Visibility: 6 or more miles (10+ km)
Ceiling: 1100 feet AGL
Clouds: overcast cloud deck at 1100 feet AGL
Weather: no significant weather observed at this time

METAR text: UUBW 230530Z 02004MPS 9999 OVC011 01/M00 Q1019 R30/220248 NOSIG
Conditions at: UUBW (MOSCOW/NOVOYE SR, RU) observed 0530 UTC 23 March 2019
Temperature: 1.0°C (34°F)
Dewpoint: 0.0°C (32°F) [RH = 93%]
Pressure (altimeter): 30.09 inches Hg (1019.0 mb)
Winds: from the NNE (20 degrees) at 9 MPH (8 knots; 4.1 m/s)
Visibility: 6 or more miles (10+ km)
Ceiling: 1100 feet AGL
Clouds: overcast cloud deck at 1100 feet AGL
Weather: no significant weather observed at this time

METAR text: UUBW 230500Z 01005MPS 9999 OVC009 01/M00 Q1019 R30/220248 NOSIG
Conditions at: UUBW (MOSCOW/NOVOYE SR, RU) observed 0500 UTC 23 March 2019
Temperature: 1.0°C (34°F)
Dewpoint: 0.0°C (32°F) [RH = 93%]
Pressure (altimeter): 30.09 inches Hg (1019.0 mb)
Winds: from the N (10 degrees) at 12 MPH (10 knots; 5.1 m/s)
Visibility: 6 or more miles (10+ km)
Ceiling: 900 feet AGL
Clouds: overcast cloud deck at 900 feet AGL
Weather: no significant weather observed at this time

METAR text: UUBW 230430Z 02005MPS 9999 OVC008 01/M00 Q1018 R30/220248 NOSIG
Conditions at: UUBW (MOSCOW/NOVOYE SR, RU) observed 0430 UTC 23 March 2019
Temperature: 1.0°C (34°F)
Dewpoint: 0.0°C (32°F) [RH = 93%]
Pressure (altimeter): 30.06 inches Hg (1018.0 mb)
Winds: from the NNE (20 degrees) at 12 MPH (10 knots; 5.1 m/s)
Visibility: 6 or more miles (10+ km)
Ceiling: 800 feet AGL
Clouds: overcast cloud deck at 800 feet AGL
Weather: no significant weather observed at this time

METAR text: UUBW 230400Z 02005MPS 9999 OVC008 01/M00 Q1017 R30/220248 NOSIG
Conditions at: UUBW (MOSCOW/NOVOYE SR, RU) observed 0400 UTC 23 March 2019
Temperature: 1.0°C (34°F)
Dewpoint: 0.0°C (32°F) [RH = 93%]
Pressure (altimeter): 30.03 inches Hg (1017.0 mb)
Winds: from the NNE (20 degrees) at 12 MPH (10 knots; 5.1 m/s)
Visibility: 6 or more miles (10+ km)
Ceiling: 800 feet AGL
Clouds: overcast cloud deck at 800 feet AGL
Weather: no significant weather observed at this time

METAR text: UUBW 230330Z 02005MPS 6000 -SN SCT008 OVC013 01/M00 Q1017 R30/220248 NOSIG
Conditions at: UUBW (MOSCOW/NOVOYE SR, RU) observed 0330 UTC 23 March 2019
Temperature: 1.0°C (34°F)
Dewpoint: 0.0°C (32°F) [RH = 93%]
Pressure (altimeter): 30.03 inches Hg (1017.0 mb)
Winds: from the NNE (20 degrees) at 12 MPH (10 knots; 5.1 m/s)
Visibility: 4 miles ( 6 km)
Ceiling: 1300 feet AGL
Clouds: scattered clouds at 800 feet AGL
overcast cloud deck at 1300 feet AGL
Weather: -SN  (light snow)

METAR text: UUBW 230300Z 02005MPS 9999 OVC012 01/M00 Q1016 R30/220248 NOSIG
Conditions at: UUBW (MOSCOW/NOVOYE SR, RU) observed 0300 UTC 23 March 2019
Temperature: 1.0°C (34°F)
Dewpoint: 0.0°C (32°F) [RH = 93%]
Pressure (altimeter): 30.00 inches Hg (1016.0 mb)
Winds: from the NNE (20 degrees) at 12 MPH (10 knots; 5.1 m/s)
Visibility: 6 or more miles (10+ km)
Ceiling: 1200 feet AGL
Clouds: overcast cloud deck at 1200 feet AGL
Weather: no significant weather observed at this time

METAR text: UUBW 230230Z 03005MPS 9999 SCT009 OVC015 01/M00 Q1015 R30/220248 NOSIG
Conditions at: UUBW (MOSCOW/NOVOYE SR, RU) observed 0230 UTC 23 March 2019
Temperature: 1.0°C (34°F)
Dewpoint: 0.0°C (32°F) [RH = 93%]
Pressure (altimeter): 29.97 inches Hg (1015.0 mb)
Winds: from the NNE (30 degrees) at 12 MPH (10 knots; 5.1 m/s)
Visibility: 6 or more miles (10+ km)
Ceiling: 1500 feet AGL
Clouds: scattered clouds at 900 feet AGL
overcast cloud deck at 1500 feet AGL
Weather: no significant weather observed at this time

METAR text: UUBW 230200Z 02005MPS 9999 -SN SCT008 BKN016 01/M00 Q1014 R30/110055 NOSIG
Conditions at: UUBW (MOSCOW/NOVOYE SR, RU) observed 0200 UTC 23 March 2019
Temperature: 1.0°C (34°F)
Dewpoint: 0.0°C (32°F) [RH = 93%]
Pressure (altimeter): 29.94 inches Hg (1014.0 mb)
Winds: from the NNE (20 degrees) at 12 MPH (10 knots; 5.1 m/s)
Visibility: 6 or more miles (10+ km)
Ceiling: 1600 feet AGL
Clouds: scattered clouds at 800 feet AGL
broken clouds at 1600 feet AGL
Weather: -SN  (light snow)

METAR text: UUBW 230130Z 02005MPS 5000 -SN SCT008 BKN018 01/M00 Q1013 R30/110055 NOSIG
Conditions at: UUBW (MOSCOW/NOVOYE SR, RU) observed 0130 UTC 23 March 2019
Temperature: 1.0°C (34°F)
Dewpoint: 0.0°C (32°F) [RH = 93%]
Pressure (altimeter): 29.91 inches Hg (1013.0 mb)
Winds: from the NNE (20 degrees) at 12 MPH (10 knots; 5.1 m/s)
Visibility: 3 miles ( 5 km)
Ceiling: 1800 feet AGL
Clouds: scattered clouds at 800 feet AGL
broken clouds at 1800 feet AGL
Weather: -SN  (light snow)

METAR text: UUBW 230100Z 36005MPS 7000 -SN SCT007 BKN023 01/M00 Q1013 R30/110055 NOSIG
Conditions at: UUBW (MOSCOW/NOVOYE SR, RU) observed 0100 UTC 23 March 2019
Temperature: 1.0°C (34°F)
Dewpoint: 0.0°C (32°F) [RH = 93%]
Pressure (altimeter): 29.91 inches Hg (1013.0 mb)
Winds: from the N (360 degrees) at 12 MPH (10 knots; 5.1 m/s)
Visibility: 4 miles ( 7 km)
Ceiling: 2300 feet AGL
Clouds: scattered clouds at 700 feet AGL
broken clouds at 2300 feet AGL
Weather: -SN  (light snow)

METAR text: UUBW 230030Z 34005MPS 5000 -SN SCT010 BKN022 00/M00 Q1012 R30/110055 NOSIG
Conditions at: UUBW (MOSCOW/NOVOYE SR, RU) observed 0030 UTC 23 March 2019
Temperature: 0.0°C (32°F)
Dewpoint: 0.0°C (32°F) [RH = 100%]
Pressure (altimeter): 29.88 inches Hg (1012.0 mb)
Winds: from the NNW (340 degrees) at 12 MPH (10 knots; 5.1 m/s)
Visibility: 3 miles ( 5 km)
Ceiling: 2200 feet AGL
Clouds: scattered clouds at 1000 feet AGL
broken clouds at 2200 feet AGL
Weather: -SN  (light snow)

METAR text: UUBW 230000Z 33005MPS 5000 -SN SCT010 BKN022 00/M01 Q1012 R30/110055 NOSIG
Conditions at: UUBW (MOSCOW/NOVOYE SR, RU) observed 0000 UTC 23 March 2019
Temperature: 0.0°C (32°F)
Dewpoint: -1.0°C (30°F) [RH = 93%]
Pressure (altimeter): 29.88 inches Hg (1012.0 mb)
Winds: from the NNW (330 degrees) at 12 MPH (10 knots; 5.1 m/s)
Visibility: 3 miles ( 5 km)
Ceiling: 2200 feet AGL
Clouds: scattered clouds at 1000 feet AGL
broken clouds at 2200 feet AGL
Weather: -SN  (light snow)

METAR text: UUBW 222330Z 32006MPS 3900 -SN BKN011 00/M01 Q1011 R30/110055 NOSIG
Conditions at: UUBW (MOSCOW/NOVOYE SR, RU) observed 2330 UTC 22 March 2019
Temperature: 0.0°C (32°F)
Dewpoint: -1.0°C (30°F) [RH = 93%]
Pressure (altimeter): 29.85 inches Hg (1011.0 mb)
Winds: from the NW (320 degrees) at 14 MPH (12 knots; 6.2 m/s)
Visibility: 2.42 miles (3.89 km)
Ceiling: 1100 feet AGL
Clouds: broken clouds at 1100 feet AGL
Weather: -SN  (light snow)

METAR text: UUBW 222300Z 32006MPS 3100 -SN BKN012 00/M01 Q1011 R30/110055 NOSIG
Conditions at: UUBW (MOSCOW/NOVOYE SR, RU) observed 2300 UTC 22 March 2019
Temperature: 0.0°C (32°F)
Dewpoint: -1.0°C (30°F) [RH = 93%]
Pressure (altimeter): 29.85 inches Hg (1011.0 mb)
Winds: from the NW (320 degrees) at 14 MPH (12 knots; 6.2 m/s)
Visibility: 1.93 miles (3.11 km)
Ceiling: 1200 feet AGL
Clouds: broken clouds at 1200 feet AGL
Weather: -SN  (light snow)

METAR text: UUBW 222230Z 32006MPS 4500 -SN BKN014 00/M01 Q1011 R30/110055 NOSIG
Conditions at: UUBW (MOSCOW/NOVOYE SR, RU) observed 2230 UTC 22 March 2019
Temperature: 0.0°C (32°F)
Dewpoint: -1.0°C (30°F) [RH = 93%]
Pressure (altimeter): 29.85 inches Hg (1011.0 mb)
Winds: from the NW (320 degrees) at 14 MPH (12 knots; 6.2 m/s)
Visibility: 2.80 miles (4.51 km)
Ceiling: 1400 feet AGL
Clouds: broken clouds at 1400 feet AGL
Weather: -SN  (light snow)

METAR text: UUBW 222200Z 31007MPS 9999 -SN BKN019 00/M01 Q1011 R30/110055 NOSIG
Conditions at: UUBW (MOSCOW/NOVOYE SR, RU) observed 2200 UTC 22 March 2019
Temperature: 0.0°C (32°F)
Dewpoint: -1.0°C (30°F) [RH = 93%]
Pressure (altimeter): 29.85 inches Hg (1011.0 mb)
Winds: from the NW (310 degrees) at 16 MPH (14 knots; 7.2 m/s)
Visibility: 6 or more miles (10+ km)
Ceiling: 1900 feet AGL
Clouds: broken clouds at 1900 feet AGL
Weather: -SN  (light snow)

METAR text: UUBW 222130Z 31007MPS 9999 -SN BKN019 01/M02 Q1010 R30/110055 NOSIG
Conditions at: UUBW (MOSCOW/NOVOYE SR, RU) observed 2130 UTC 22 March 2019
Temperature: 1.0°C (34°F)
Dewpoint: -2.0°C (28°F) [RH = 80%]
Pressure (altimeter): 29.82 inches Hg (1010.0 mb)
Winds: from the NW (310 degrees) at 16 MPH (14 knots; 7.2 m/s)
Visibility: 6 or more miles (10+ km)
Ceiling: 1900 feet AGL
Clouds: broken clouds at 1900 feet AGL
Weather: -SN  (light snow)

Forecast for: UUBW (MOSCOW/NOVOYE SR, RU)
Text: TAF UUBW 240756Z 2409/2509 19004MPS 3100 -SN FEW006 OVC011 TX03/2412Z TNM01/2504Z
Forecast period: 0900 to 1300 UTC 24 March 2019
Forecast type: FROM: standard forecast or significant change
Winds: from the S (190 degrees) at 9 MPH (8 knots; 4.1 m/s)
Visibility: 1.93 miles (3.11 km)
Ceiling: 1100 feet AGL
Clouds: few clouds at 600 feet AGL
overcast cloud deck at 1100 feet AGL
Weather: -SN  (light snow)
Text: TEMPO 2409/2413 1200 SHSN BKN005 SCT012CB
Forecast period: 0900 to 1300 UTC 24 March 2019
Forecast type: TEMPORARY: The following changes expected for less than half the time period
Visibility: 0.75 miles (1.21 km)
Ceiling: 500 feet AGL
Clouds: broken clouds at 500 feet AGL
scattered clouds at 1200 feet AGL
Weather: SHSN  (snow showers)
Text: FM241300 27006MPS 6000 BKN011
Forecast period: 1300 UTC 24 March 2019 to 0900 UTC 25 March 2019
Forecast type: FROM: standard forecast or significant change
Winds: from the W (270 degrees) at 14 MPH (12 knots; 6.2 m/s)
Visibility: 4 miles (6 km)
Ceiling: 1100 feet AGL
Clouds: broken clouds at 1100 feet AGL
Weather: no significant weather forecast for this period
Text: TEMPO 2413/2420 2100 -SHRASN FEW006 BKN012CB
Forecast period: 1300 to 2000 UTC 24 March 2019
Forecast type: TEMPORARY: The following changes expected for less than half the time period
Visibility: 1.30 miles (2.09 km)
Ceiling: 1200 feet AGL
Clouds: few clouds at 600 feet AGL
broken clouds at 1200 feet AGL
Weather: -SHRA -SHSN  (light rain showers, light snow showers)